sensor_id;sensor_type;location;lat;lon;timestamp;temperature;humidity
70336;SHT31;57756;47.408;18.940;2022-11-15T00:01:35;5.18;99.16
70336;SHT31;57756;47.408;18.940;2022-11-15T00:04:03;5.16;99.16
70336;SHT31;57756;47.408;18.940;2022-11-15T00:06:28;5.18;99.02
70336;SHT31;57756;47.408;18.940;2022-11-15T00:08:54;5.18;99.00
70336;SHT31;57756;47.408;18.940;2022-11-15T00:11:19;5.18;99.30
70336;SHT31;57756;47.408;18.940;2022-11-15T00:13:45;5.16;99.00
70336;SHT31;57756;47.408;18.940;2022-11-15T00:16:10;5.18;99.15
70336;SHT31;57756;47.408;18.940;2022-11-15T00:18:37;5.20;99.21
70336;SHT31;57756;47.408;18.940;2022-11-15T00:21:11;5.23;99.09
70336;SHT31;57756;47.408;18.940;2022-11-15T00:23:36;5.22;99.33
70336;SHT31;57756;47.408;18.940;2022-11-15T00:26:03;5.23;99.54
70336;SHT31;57756;47.408;18.940;2022-11-15T00:28:29;5.26;99.22
70336;SHT31;57756;47.408;18.940;2022-11-15T00:31:00;5.27;99.62
70336;SHT31;57756;47.408;18.940;2022-11-15T00:33:26;5.30;99.62
70336;SHT31;57756;47.408;18.940;2022-11-15T00:35:51;5.32;99.62
70336;SHT31;57756;47.408;18.940;2022-11-15T00:38:17;5.33;99.91
70336;SHT31;57756;47.408;18.940;2022-11-15T00:40:42;5.34;99.75
70336;SHT31;57756;47.408;18.940;2022-11-15T00:43:07;5.40;99.92
70336;SHT31;57756;47.408;18.940;2022-11-15T00:45:33;5.42;99.89
70336;SHT31;57756;47.408;18.940;2022-11-15T00:47:59;5.43;99.99
70336;SHT31;57756;47.408;18.940;2022-11-15T00:50:24;5.46;99.99
70336;SHT31;57756;47.408;18.940;2022-11-15T00:52:50;5.50;99.99
70336;SHT31;57756;47.408;18.940;2022-11-15T00:55:16;5.47;99.99
70336;SHT31;57756;47.408;18.940;2022-11-15T00:57:42;5.51;99.99
70336;SHT31;57756;47.408;18.940;2022-11-15T01:00:09;5.51;99.99
70336;SHT31;57756;47.408;18.940;2022-11-15T01:02:34;5.53;99.99
70336;SHT31;57756;47.408;18.940;2022-11-15T01:05:00;5.54;99.99
70336;SHT31;57756;47.408;18.940;2022-11-15T01:07:26;5.54;99.99
70336;SHT31;57756;47.408;18.940;2022-11-15T01:09:51;5.54;99.99
70336;SHT31;57756;47.408;18.940;2022-11-15T01:12:17;5.57;99.99
70336;SHT31;57756;47.408;18.940;2022-11-15T01:14:42;5.58;99.99
70336;SHT31;57756;47.408;18.940;2022-11-15T01:17:07;5.55;99.99
70336;SHT31;57756;47.408;18.940;2022-11-15T01:19:33;5.53;99.99
70336;SHT31;57756;47.408;18.940;2022-11-15T01:21:58;5.60;99.99
70336;SHT31;57756;47.408;18.940;2022-11-15T01:24:24;5.60;99.99
70336;SHT31;57756;47.408;18.940;2022-11-15T01:26:50;5.63;99.99
70336;SHT31;57756;47.408;18.940;2022-11-15T01:29:15;5.65;99.99
70336;SHT31;57756;47.408;18.940;2022-11-15T01:31:41;5.65;99.93
70336;SHT31;57756;47.408;18.940;2022-11-15T01:34:06;5.68;99.95
70336;SHT31;57756;47.408;18.940;2022-11-15T01:36:32;5.70;99.84
70336;SHT31;57756;47.408;18.940;2022-11-15T01:38:58;5.67;99.98
70336;SHT31;57756;47.408;18.940;2022-11-15T01:41:29;5.71;99.99
70336;SHT31;57756;47.408;18.940;2022-11-15T01:47:13;5.78;99.99
70336;SHT31;57756;47.408;18.940;2022-11-15T01:49:53;5.79;99.99
70336;SHT31;57756;47.408;18.940;2022-11-15T01:52:22;5.79;99.98
70336;SHT31;57756;47.408;18.940;2022-11-15T01:54:52;5.79;99.97
70336;SHT31;57756;47.408;18.940;2022-11-15T01:57:18;5.81;99.76
70336;SHT31;57756;47.408;18.940;2022-11-15T01:59:44;5.84;99.80
70336;SHT31;57756;47.408;18.940;2022-11-15T02:02:10;5.84;99.98
70336;SHT31;57756;47.408;18.940;2022-11-15T02:04:43;5.81;99.99
70336;SHT31;57756;47.408;18.940;2022-11-15T02:07:13;5.81;99.99
70336;SHT31;57756;47.408;18.940;2022-11-15T02:09:39;5.73;99.99
70336;SHT31;57756;47.408;18.940;2022-11-15T02:12:06;5.78;99.99
70336;SHT31;57756;47.408;18.940;2022-11-15T02:14:33;5.78;99.99
70336;SHT31;57756;47.408;18.940;2022-11-15T02:17:13;5.81;99.99
70336;SHT31;57756;47.408;18.940;2022-11-15T02:19:53;5.81;99.99
70336;SHT31;57756;47.408;18.940;2022-11-15T02:28:31;5.81;99.99
70336;SHT31;57756;47.408;18.940;2022-11-15T02:34:04;5.91;99.99
70336;SHT31;57756;47.408;18.940;2022-11-15T02:41:07;5.88;99.99
70336;SHT31;57756;47.408;18.940;2022-11-15T02:43:43;5.91;99.99
70336;SHT31;57756;47.408;18.940;2022-11-15T02:49:18;5.91;99.99
70336;SHT31;57756;47.408;18.940;2022-11-15T02:51:47;5.90;99.95
70336;SHT31;57756;47.408;18.940;2022-11-15T02:54:29;5.91;99.74
70336;SHT31;57756;47.408;18.940;2022-11-15T02:57:00;5.91;99.86
70336;SHT31;57756;47.408;18.940;2022-11-15T03:04:59;5.91;99.84
70336;SHT31;57756;47.408;18.940;2022-11-15T03:10:07;5.91;99.99
70336;SHT31;57756;47.408;18.940;2022-11-15T03:15:20;5.95;99.99
70336;SHT31;57756;47.408;18.940;2022-11-15T03:18:10;5.94;99.99
70336;SHT31;57756;47.408;18.940;2022-11-15T03:20:38;5.98;99.99
70336;SHT31;57756;47.408;18.940;2022-11-15T03:23:07;5.99;99.99
70336;SHT31;57756;47.408;18.940;2022-11-15T03:25:35;6.01;99.99
70336;SHT31;57756;47.408;18.940;2022-11-15T03:28:04;5.98;99.99
70336;SHT31;57756;47.408;18.940;2022-11-15T03:30:32;5.99;99.99
70336;SHT31;57756;47.408;18.940;2022-11-15T03:33:00;5.99;99.99
70336;SHT31;57756;47.408;18.940;2022-11-15T03:35:31;6.02;99.95
70336;SHT31;57756;47.408;18.940;2022-11-15T03:38:22;5.97;99.99
70336;SHT31;57756;47.408;18.940;2022-11-15T03:40:57;5.95;99.99
70336;SHT31;57756;47.408;18.940;2022-11-15T03:43:43;5.94;99.99
70336;SHT31;57756;47.408;18.940;2022-11-15T03:46:14;5.94;99.99
70336;SHT31;57756;47.408;18.940;2022-11-15T03:48:43;5.98;99.65
70336;SHT31;57756;47.408;18.940;2022-11-15T03:51:12;6.06;98.44
70336;SHT31;57756;47.408;18.940;2022-11-15T03:53:37;6.05;98.69
70336;SHT31;57756;47.408;18.940;2022-11-15T03:56:03;6.06;97.70
70336;SHT31;57756;47.408;18.940;2022-11-15T03:58:28;6.11;98.35
70336;SHT31;57756;47.408;18.940;2022-11-15T04:00:54;6.06;98.44
70336;SHT31;57756;47.408;18.940;2022-11-15T04:03:19;6.16;97.68
70336;SHT31;57756;47.408;18.940;2022-11-15T04:05:45;6.16;97.64
70336;SHT31;57756;47.408;18.940;2022-11-15T04:08:10;6.18;97.81
70336;SHT31;57756;47.408;18.940;2022-11-15T04:10:36;6.18;97.52
70336;SHT31;57756;47.408;18.940;2022-11-15T04:13:02;6.19;97.58
70336;SHT31;57756;47.408;18.940;2022-11-15T04:15:28;6.19;97.63
70336;SHT31;57756;47.408;18.940;2022-11-15T04:17:56;6.19;97.37
70336;SHT31;57756;47.408;18.940;2022-11-15T04:20:31;6.18;97.50
70336;SHT31;57756;47.408;18.940;2022-11-15T04:23:17;6.18;97.22
70336;SHT31;57756;47.408;18.940;2022-11-15T04:26:15;6.16;97.08
70336;SHT31;57756;47.408;18.940;2022-11-15T04:28:41;6.13;97.76
70336;SHT31;57756;47.408;18.940;2022-11-15T04:31:25;6.15;98.05
70336;SHT31;57756;47.408;18.940;2022-11-15T04:33:52;6.12;98.33
70336;SHT31;57756;47.408;18.940;2022-11-15T04:36:17;6.09;98.46
70336;SHT31;57756;47.408;18.940;2022-11-15T04:39:02;6.08;98.08
70336;SHT31;57756;47.408;18.940;2022-11-15T04:41:27;6.09;98.17
70336;SHT31;57756;47.408;18.940;2022-11-15T04:43:54;6.05;98.22
70336;SHT31;57756;47.408;18.940;2022-11-15T04:46:20;6.03;98.40
70336;SHT31;57756;47.408;18.940;2022-11-15T04:48:45;6.01;98.78
70336;SHT31;57756;47.408;18.940;2022-11-15T04:51:10;6.01;99.10
70336;SHT31;57756;47.408;18.940;2022-11-15T04:53:36;5.99;99.06
70336;SHT31;57756;47.408;18.940;2022-11-15T04:56:01;6.02;98.87
70336;SHT31;57756;47.408;18.940;2022-11-15T04:58:27;6.03;99.09
70336;SHT31;57756;47.408;18.940;2022-11-15T05:00:53;6.09;98.44
70336;SHT31;57756;47.408;18.940;2022-11-15T05:03:18;6.15;98.59
70336;SHT31;57756;47.408;18.940;2022-11-15T05:06:02;6.11;99.39
70336;SHT31;57756;47.408;18.940;2022-11-15T05:08:28;6.12;99.01
70336;SHT31;57756;47.408;18.940;2022-11-15T05:10:53;6.12;99.12
70336;SHT31;57756;47.408;18.940;2022-11-15T05:13:19;6.13;99.14
70336;SHT31;57756;47.408;18.940;2022-11-15T05:15:44;6.16;99.81
70336;SHT31;57756;47.408;18.940;2022-11-15T05:18:10;6.18;99.53
70336;SHT31;57756;47.408;18.940;2022-11-15T05:20:35;6.18;99.43
70336;SHT31;57756;47.408;18.940;2022-11-15T05:23:01;6.19;99.55
70336;SHT31;57756;47.408;18.940;2022-11-15T05:25:26;6.20;99.20
70336;SHT31;57756;47.408;18.940;2022-11-15T05:27:52;6.25;99.23
70336;SHT31;57756;47.408;18.940;2022-11-15T05:30:17;6.22;99.24
70336;SHT31;57756;47.408;18.940;2022-11-15T05:32:44;6.26;99.29
70336;SHT31;57756;47.408;18.940;2022-11-15T05:35:15;6.28;99.49
70336;SHT31;57756;47.408;18.940;2022-11-15T05:37:43;6.32;99.01
70336;SHT31;57756;47.408;18.940;2022-11-15T05:40:09;6.36;98.88
70336;SHT31;57756;47.408;18.940;2022-11-15T05:42:35;6.37;98.85
70336;SHT31;57756;47.408;18.940;2022-11-15T05:45:03;6.34;99.00
70336;SHT31;57756;47.408;18.940;2022-11-15T05:47:31;6.34;99.00
70336;SHT31;57756;47.408;18.940;2022-11-15T05:49:58;6.33;99.12
70336;SHT31;57756;47.408;18.940;2022-11-15T05:52:28;6.34;99.30
70336;SHT31;57756;47.408;18.940;2022-11-15T05:54:55;6.39;99.18
70336;SHT31;57756;47.408;18.940;2022-11-15T05:57:22;6.41;99.22
70336;SHT31;57756;47.408;18.940;2022-11-15T05:59:47;6.47;99.16
70336;SHT31;57756;47.408;18.940;2022-11-15T06:02:13;6.51;99.09
70336;SHT31;57756;47.408;18.940;2022-11-15T06:04:39;6.60;98.52
70336;SHT31;57756;47.408;18.940;2022-11-15T06:07:04;6.71;98.25
70336;SHT31;57756;47.408;18.940;2022-11-15T06:09:29;6.83;97.63
70336;SHT31;57756;47.408;18.940;2022-11-15T06:11:55;6.89;97.28
70336;SHT31;57756;47.408;18.940;2022-11-15T06:14:20;6.89;97.57
70336;SHT31;57756;47.408;18.940;2022-11-15T06:16:46;6.87;97.69
70336;SHT31;57756;47.408;18.940;2022-11-15T06:19:12;6.84;97.92
70336;SHT31;57756;47.408;18.940;2022-11-15T06:21:37;6.88;97.30
70336;SHT31;57756;47.408;18.940;2022-11-15T06:24:03;6.89;97.43
70336;SHT31;57756;47.408;18.940;2022-11-15T06:26:28;6.91;97.58
70336;SHT31;57756;47.408;18.940;2022-11-15T06:28:54;6.92;97.59
70336;SHT31;57756;47.408;18.940;2022-11-15T06:31:19;6.91;97.80
70336;SHT31;57756;47.408;18.940;2022-11-15T06:33:46;6.94;97.84
70336;SHT31;57756;47.408;18.940;2022-11-15T06:36:12;6.89;97.76
70336;SHT31;57756;47.408;18.940;2022-11-15T06:38:45;6.91;97.74
70336;SHT31;57756;47.408;18.940;2022-11-15T06:41:11;6.91;97.82
70336;SHT31;57756;47.408;18.940;2022-11-15T06:43:38;6.97;97.43
70336;SHT31;57756;47.408;18.940;2022-11-15T06:46:04;7.02;96.81
70336;SHT31;57756;47.408;18.940;2022-11-15T06:48:31;6.99;96.84
70336;SHT31;57756;47.408;18.940;2022-11-15T06:50:59;7.05;96.88
70336;SHT31;57756;47.408;18.940;2022-11-15T06:53:25;7.06;97.08
70336;SHT31;57756;47.408;18.940;2022-11-15T06:55:51;7.05;97.43
70336;SHT31;57756;47.408;18.940;2022-11-15T06:58:17;7.08;97.34
70336;SHT31;57756;47.408;18.940;2022-11-15T07:00:42;7.14;97.03
70336;SHT31;57756;47.408;18.940;2022-11-15T07:03:09;7.18;96.98
70336;SHT31;57756;47.408;18.940;2022-11-15T07:05:35;7.18;96.60
70336;SHT31;57756;47.408;18.940;2022-11-15T07:08:00;7.18;97.28
70336;SHT31;57756;47.408;18.940;2022-11-15T07:10:26;7.20;97.23
70336;SHT31;57756;47.408;18.940;2022-11-15T07:12:53;7.22;97.21
70336;SHT31;57756;47.408;18.940;2022-11-15T07:15:20;7.25;97.33
70336;SHT31;57756;47.408;18.940;2022-11-15T07:17:46;7.26;97.47
70336;SHT31;57756;47.408;18.940;2022-11-15T07:20:12;7.35;96.90
70336;SHT31;57756;47.408;18.940;2022-11-15T07:22:42;7.39;97.13
70336;SHT31;57756;47.408;18.940;2022-11-15T07:25:08;7.37;97.49
70336;SHT31;57756;47.408;18.940;2022-11-15T07:27:34;7.47;96.89
70336;SHT31;57756;47.408;18.940;2022-11-15T07:30:00;7.50;97.22
70336;SHT31;57756;47.408;18.940;2022-11-15T07:32:25;7.52;97.29
70336;SHT31;57756;47.408;18.940;2022-11-15T07:34:51;7.56;96.75
70336;SHT31;57756;47.408;18.940;2022-11-15T07:37:16;7.66;97.12
70336;SHT31;57756;47.408;18.940;2022-11-15T07:39:42;7.67;97.63
70336;SHT31;57756;47.408;18.940;2022-11-15T07:42:08;7.77;97.47
70336;SHT31;57756;47.408;18.940;2022-11-15T07:44:52;7.83;97.19
70336;SHT31;57756;47.408;18.940;2022-11-15T07:47:18;7.85;96.35
70336;SHT31;57756;47.408;18.940;2022-11-15T07:49:43;7.77;96.96
70336;SHT31;57756;47.408;18.940;2022-11-15T07:52:09;7.78;96.83
70336;SHT31;57756;47.408;18.940;2022-11-15T07:54:34;7.77;97.44
70336;SHT31;57756;47.408;18.940;2022-11-15T07:57:00;7.83;96.83
70336;SHT31;57756;47.408;18.940;2022-11-15T07:59:26;7.92;96.63
70336;SHT31;57756;47.408;18.940;2022-11-15T08:01:51;8.04;96.54
70336;SHT31;57756;47.408;18.940;2022-11-15T08:04:16;8.04;96.39
70336;SHT31;57756;47.408;18.940;2022-11-15T08:06:42;8.12;96.79
70336;SHT31;57756;47.408;18.940;2022-11-15T08:09:07;8.09;95.93
70336;SHT31;57756;47.408;18.940;2022-11-15T08:11:33;8.08;95.07
70336;SHT31;57756;47.408;18.940;2022-11-15T08:13:58;8.06;95.49
70336;SHT31;57756;47.408;18.940;2022-11-15T08:16:24;8.09;95.74
70336;SHT31;57756;47.408;18.940;2022-11-15T08:18:50;8.12;95.05
70336;SHT31;57756;47.408;18.940;2022-11-15T08:21:19;8.04;95.30
70336;SHT31;57756;47.408;18.940;2022-11-15T08:23:45;8.02;95.31
70336;SHT31;57756;47.408;18.940;2022-11-15T08:26:10;7.99;95.41
70336;SHT31;57756;47.408;18.940;2022-11-15T08:28:36;7.94;95.54
70336;SHT31;57756;47.408;18.940;2022-11-15T08:31:02;7.97;96.88
70336;SHT31;57756;47.408;18.940;2022-11-15T08:33:28;7.94;96.75
70336;SHT31;57756;47.408;18.940;2022-11-15T08:35:56;8.01;97.02
70336;SHT31;57756;47.408;18.940;2022-11-15T08:38:22;7.97;96.97
70336;SHT31;57756;47.408;18.940;2022-11-15T08:40:50;7.94;97.89
70336;SHT31;57756;47.408;18.940;2022-11-15T08:43:16;7.90;97.60
70336;SHT31;57756;47.408;18.940;2022-11-15T08:45:41;7.92;97.68
70336;SHT31;57756;47.408;18.940;2022-11-15T08:48:07;7.92;97.70
70336;SHT31;57756;47.408;18.940;2022-11-15T08:50:33;8.01;97.43
70336;SHT31;57756;47.408;18.940;2022-11-15T08:53:04;8.06;97.72
70336;SHT31;57756;47.408;18.940;2022-11-15T08:55:30;8.11;96.62
70336;SHT31;57756;47.408;18.940;2022-11-15T08:57:57;7.98;96.20
70336;SHT31;57756;47.408;18.940;2022-11-15T09:00:23;8.09;96.71
70336;SHT31;57756;47.408;18.940;2022-11-15T09:02:48;8.15;96.42
70336;SHT31;57756;47.408;18.940;2022-11-15T09:05:14;8.29;96.54
70336;SHT31;57756;47.408;18.940;2022-11-15T09:07:40;8.32;96.18
70336;SHT31;57756;47.408;18.940;2022-11-15T09:10:06;8.29;96.20
70336;SHT31;57756;47.408;18.940;2022-11-15T09:12:32;8.39;96.49
70336;SHT31;57756;47.408;18.940;2022-11-15T09:14:57;8.46;96.43
70336;SHT31;57756;47.408;18.940;2022-11-15T09:17:23;8.52;95.63
70336;SHT31;57756;47.408;18.940;2022-11-15T09:19:48;8.53;94.95
70336;SHT31;57756;47.408;18.940;2022-11-15T09:22:14;8.49;94.56
70336;SHT31;57756;47.408;18.940;2022-11-15T09:24:39;8.45;95.12
70336;SHT31;57756;47.408;18.940;2022-11-15T09:27:05;8.54;95.28
70336;SHT31;57756;47.408;18.940;2022-11-15T09:29:30;8.56;94.52
70336;SHT31;57756;47.408;18.940;2022-11-15T09:31:56;8.53;94.88
70336;SHT31;57756;47.408;18.940;2022-11-15T09:34:21;8.57;94.43
70336;SHT31;57756;47.408;18.940;2022-11-15T09:36:47;8.61;95.14
70336;SHT31;57756;47.408;18.940;2022-11-15T09:39:12;8.64;94.09
70336;SHT31;57756;47.408;18.940;2022-11-15T09:49:43;8.69;93.63
70336;SHT31;57756;47.408;18.940;2022-11-15T09:52:10;8.53;94.19
70336;SHT31;57756;47.408;18.940;2022-11-15T09:54:38;8.49;95.15
70336;SHT31;57756;47.408;18.940;2022-11-15T09:57:20;8.42;95.46
70336;SHT31;57756;47.408;18.940;2022-11-15T10:00:25;8.35;95.35
70336;SHT31;57756;47.408;18.940;2022-11-15T10:05:42;8.48;95.19
70336;SHT31;57756;47.408;18.940;2022-11-15T10:11:03;8.60;94.16
70336;SHT31;57756;47.408;18.940;2022-11-15T10:13:36;8.64;94.29
70336;SHT31;57756;47.408;18.940;2022-11-15T10:24:44;8.61;94.56
70336;SHT31;57756;47.408;18.940;2022-11-15T10:27:16;8.61;94.45
70336;SHT31;57756;47.408;18.940;2022-11-15T10:29:47;8.57;94.68
70336;SHT31;57756;47.408;18.940;2022-11-15T10:32:15;8.57;94.43
70336;SHT31;57756;47.408;18.940;2022-11-15T10:34:41;8.50;94.71
70336;SHT31;57756;47.408;18.940;2022-11-15T10:37:07;8.50;95.06
70336;SHT31;57756;47.408;18.940;2022-11-15T10:39:33;8.64;94.95
70336;SHT31;57756;47.408;18.940;2022-11-15T10:42:26;8.64;94.71
70336;SHT31;57756;47.408;18.940;2022-11-15T10:44:52;8.52;94.31
70336;SHT31;57756;47.408;18.940;2022-11-15T10:47:27;8.53;94.56
70336;SHT31;57756;47.408;18.940;2022-11-15T10:49:56;8.60;94.38
70336;SHT31;57756;47.408;18.940;2022-11-15T10:52:22;8.60;94.94
70336;SHT31;57756;47.408;18.940;2022-11-15T10:54:55;8.50;94.78
70336;SHT31;57756;47.408;18.940;2022-11-15T10:57:33;8.49;94.61
70336;SHT31;57756;47.408;18.940;2022-11-15T11:00:25;8.67;94.13
70336;SHT31;57756;47.408;18.940;2022-11-15T11:05:35;8.61;94.05
70336;SHT31;57756;47.408;18.940;2022-11-15T11:10:52;8.52;94.45
70336;SHT31;57756;47.408;18.940;2022-11-15T11:13:26;8.57;94.36
70336;SHT31;57756;47.408;18.940;2022-11-15T11:21:29;8.46;94.72
70336;SHT31;57756;47.408;18.940;2022-11-15T11:32:40;8.48;94.94
70336;SHT31;57756;47.408;18.940;2022-11-15T11:40:44;8.32;95.86
70336;SHT31;57756;47.408;18.940;2022-11-15T11:43:36;8.28;95.97
70336;SHT31;57756;47.408;18.940;2022-11-15T11:46:10;8.19;96.09
70336;SHT31;57756;47.408;18.940;2022-11-15T11:48:40;8.13;96.27
70336;SHT31;57756;47.408;18.940;2022-11-15T11:51:26;8.09;96.94
70336;SHT31;57756;47.408;18.940;2022-11-15T11:54:34;8.12;96.94
70336;SHT31;57756;47.408;18.940;2022-11-15T11:57:13;8.08;96.58
70336;SHT31;57756;47.408;18.940;2022-11-15T11:59:49;8.02;96.81
70336;SHT31;57756;47.408;18.940;2022-11-15T12:02:21;7.97;96.49
70336;SHT31;57756;47.408;18.940;2022-11-15T12:04:52;7.88;97.00
70336;SHT31;57756;47.408;18.940;2022-11-15T12:10:11;7.88;97.51
70336;SHT31;57756;47.408;18.940;2022-11-15T12:12:51;7.84;97.79
70336;SHT31;57756;47.408;18.940;2022-11-15T12:15:23;7.83;97.82
70336;SHT31;57756;47.408;18.940;2022-11-15T12:17:50;7.83;97.81
70336;SHT31;57756;47.408;18.940;2022-11-15T12:20:23;7.88;98.29
70336;SHT31;57756;47.408;18.940;2022-11-15T12:25:28;7.84;98.55
70336;SHT31;57756;47.408;18.940;2022-11-15T12:28:11;7.90;98.43
70336;SHT31;57756;47.408;18.940;2022-11-15T12:31:03;7.83;97.57
70336;SHT31;57756;47.408;18.940;2022-11-15T12:33:39;7.83;97.74
70336;SHT31;57756;47.408;18.940;2022-11-15T12:36:09;7.85;97.51
70336;SHT31;57756;47.408;18.940;2022-11-15T12:38:55;7.84;98.02
70336;SHT31;57756;47.408;18.940;2022-11-15T12:42:34;7.84;97.86
70336;SHT31;57756;47.408;18.940;2022-11-15T12:59:52;8.05;97.87
70336;SHT31;57756;47.408;18.940;2022-11-15T13:17:52;7.95;98.80
70336;SHT31;57756;47.408;18.940;2022-11-15T13:20:21;8.02;98.23
70336;SHT31;57756;47.408;18.940;2022-11-15T13:22:51;8.09;98.23
70336;SHT31;57756;47.408;18.940;2022-11-15T13:33:20;7.97;98.69
70336;SHT31;57756;47.408;18.940;2022-11-15T13:35:49;8.02;99.10
70336;SHT31;57756;47.408;18.940;2022-11-15T13:38:35;7.97;97.53
70336;SHT31;57756;47.408;18.940;2022-11-15T13:41:34;7.95;98.17
70336;SHT31;57756;47.408;18.940;2022-11-15T13:44:01;7.95;98.16
70336;SHT31;57756;47.408;18.940;2022-11-15T13:46:33;7.94;98.48
70336;SHT31;57756;47.408;18.940;2022-11-15T13:49:02;8.06;97.84
70336;SHT31;57756;47.408;18.940;2022-11-15T13:51:42;7.91;97.78
70336;SHT31;57756;47.408;18.940;2022-11-15T13:57:18;7.78;98.88
70336;SHT31;57756;47.408;18.940;2022-11-15T13:59:49;7.78;98.57
70336;SHT31;57756;47.408;18.940;2022-11-15T14:02:19;7.73;98.73
70336;SHT31;57756;47.408;18.940;2022-11-15T14:07:55;7.75;98.44
70336;SHT31;57756;47.408;18.940;2022-11-15T14:10:31;7.70;98.63
70336;SHT31;57756;47.408;18.940;2022-11-15T14:12:58;7.66;98.45
70336;SHT31;57756;47.408;18.940;2022-11-15T14:15:31;7.56;99.17
70336;SHT31;57756;47.408;18.940;2022-11-15T14:17:57;7.52;99.72
70336;SHT31;57756;47.408;18.940;2022-11-15T14:23:06;7.56;99.53
70336;SHT31;57756;47.408;18.940;2022-11-15T14:25:52;7.64;99.39
70336;SHT31;57756;47.408;18.940;2022-11-15T14:30:53;7.63;99.60
70336;SHT31;57756;47.408;18.940;2022-11-15T14:33:33;7.66;99.48
70336;SHT31;57756;47.408;18.940;2022-11-15T14:36:20;7.70;99.11
70336;SHT31;57756;47.408;18.940;2022-11-15T14:38:46;7.63;99.08
70336;SHT31;57756;47.408;18.940;2022-11-15T14:41:23;7.67;99.15
70336;SHT31;57756;47.408;18.940;2022-11-15T14:43:50;7.67;99.59
70336;SHT31;57756;47.408;18.940;2022-11-15T14:46:16;7.67;99.09
70336;SHT31;57756;47.408;18.940;2022-11-15T14:48:41;7.70;98.25
70336;SHT31;57756;47.408;18.940;2022-11-15T14:51:18;7.64;98.39
70336;SHT31;57756;47.408;18.940;2022-11-15T14:53:44;7.56;98.68
70336;SHT31;57756;47.408;18.940;2022-11-15T14:56:11;7.63;98.48
70336;SHT31;57756;47.408;18.940;2022-11-15T14:58:36;7.64;98.36
70336;SHT31;57756;47.408;18.940;2022-11-15T15:01:13;7.64;98.41
70336;SHT31;57756;47.408;18.940;2022-11-15T15:03:39;7.60;99.20
70336;SHT31;57756;47.408;18.940;2022-11-15T15:06:05;7.60;98.85
70336;SHT31;57756;47.408;18.940;2022-11-15T15:08:30;7.56;99.11
70336;SHT31;57756;47.408;18.940;2022-11-15T15:10:57;7.54;99.27
70336;SHT31;57756;47.408;18.940;2022-11-15T15:13:23;7.50;99.36
70336;SHT31;57756;47.408;18.940;2022-11-15T15:15:50;7.53;99.34
70336;SHT31;57756;47.408;18.940;2022-11-15T15:18:17;7.56;99.42
70336;SHT31;57756;47.408;18.940;2022-11-15T15:20:44;7.60;99.53
70336;SHT31;57756;47.408;18.940;2022-11-15T15:23:16;7.66;99.38
70336;SHT31;57756;47.408;18.940;2022-11-15T15:25:43;7.63;99.32
70336;SHT31;57756;47.408;18.940;2022-11-15T15:28:11;7.63;99.35
70336;SHT31;57756;47.408;18.940;2022-11-15T15:30:36;7.64;99.16
70336;SHT31;57756;47.408;18.940;2022-11-15T15:33:02;7.67;99.29
70336;SHT31;57756;47.408;18.940;2022-11-15T15:35:30;7.59;99.69
70336;SHT31;57756;47.408;18.940;2022-11-15T15:37:57;7.50;99.70
70336;SHT31;57756;47.408;18.940;2022-11-15T15:40:23;7.49;99.99
70336;SHT31;57756;47.408;18.940;2022-11-15T15:42:50;7.53;99.89
70336;SHT31;57756;47.408;18.940;2022-11-15T15:45:17;7.49;99.76
70336;SHT31;57756;47.408;18.940;2022-11-15T15:47:43;7.47;99.98
70336;SHT31;57756;47.408;18.940;2022-11-15T15:50:22;7.42;99.99
70336;SHT31;57756;47.408;18.940;2022-11-15T15:52:50;7.46;99.99
70336;SHT31;57756;47.408;18.940;2022-11-15T15:55:15;7.50;99.99
70336;SHT31;57756;47.408;18.940;2022-11-15T15:57:41;7.47;99.99
70336;SHT31;57756;47.408;18.940;2022-11-15T16:00:08;7.57;99.99
70336;SHT31;57756;47.408;18.940;2022-11-15T16:02:34;7.54;99.83
70336;SHT31;57756;47.408;18.940;2022-11-15T16:04:59;7.54;99.99
70336;SHT31;57756;47.408;18.940;2022-11-15T16:07:25;7.50;99.99
70336;SHT31;57756;47.408;18.940;2022-11-15T16:09:53;7.54;99.99
70336;SHT31;57756;47.408;18.940;2022-11-15T16:12:25;7.56;99.99
70336;SHT31;57756;47.408;18.940;2022-11-15T16:14:51;7.54;99.99
70336;SHT31;57756;47.408;18.940;2022-11-15T16:17:19;7.53;99.99
70336;SHT31;57756;47.408;18.940;2022-11-15T16:19:45;7.63;99.52
70336;SHT31;57756;47.408;18.940;2022-11-15T16:22:10;7.59;99.71
70336;SHT31;57756;47.408;18.940;2022-11-15T16:24:36;7.59;99.69
70336;SHT31;57756;47.408;18.940;2022-11-15T16:27:01;7.62;99.77
70336;SHT31;57756;47.408;18.940;2022-11-15T16:29:27;7.52;99.99
70336;SHT31;57756;47.408;18.940;2022-11-15T16:31:53;7.52;99.99
70336;SHT31;57756;47.408;18.940;2022-11-15T16:34:19;7.57;99.99
70336;SHT31;57756;47.408;18.940;2022-11-15T16:36:44;7.53;99.99
70336;SHT31;57756;47.408;18.940;2022-11-15T16:39:13;7.56;99.99
70336;SHT31;57756;47.408;18.940;2022-11-15T16:41:40;7.60;99.99
70336;SHT31;57756;47.408;18.940;2022-11-15T16:44:08;7.57;99.99
70336;SHT31;57756;47.408;18.940;2022-11-15T16:46:34;7.59;99.90
70336;SHT31;57756;47.408;18.940;2022-11-15T16:48:59;7.50;99.99
70336;SHT31;57756;47.408;18.940;2022-11-15T16:51:25;7.45;99.99
70336;SHT31;57756;47.408;18.940;2022-11-15T16:53:50;7.50;99.99
70336;SHT31;57756;47.408;18.940;2022-11-15T16:56:28;7.53;99.99
70336;SHT31;57756;47.408;18.940;2022-11-15T16:58:55;7.56;99.99
70336;SHT31;57756;47.408;18.940;2022-11-15T17:01:26;7.60;99.99
70336;SHT31;57756;47.408;18.940;2022-11-15T17:03:52;7.47;99.99
70336;SHT31;57756;47.408;18.940;2022-11-15T17:06:18;7.59;99.99
70336;SHT31;57756;47.408;18.940;2022-11-15T17:08:44;7.53;99.99
70336;SHT31;57756;47.408;18.940;2022-11-15T17:11:14;7.52;99.99
70336;SHT31;57756;47.408;18.940;2022-11-15T17:13:40;7.46;99.99
70336;SHT31;57756;47.408;18.940;2022-11-15T17:16:07;7.52;99.99
70336;SHT31;57756;47.408;18.940;2022-11-15T17:18:34;7.47;99.99
70336;SHT31;57756;47.408;18.940;2022-11-15T17:21:09;7.47;99.99
70336;SHT31;57756;47.408;18.940;2022-11-15T17:23:36;7.49;99.99
70336;SHT31;57756;47.408;18.940;2022-11-15T17:26:03;7.53;99.99
70336;SHT31;57756;47.408;18.940;2022-11-15T17:28:31;7.53;99.99
70336;SHT31;57756;47.408;18.940;2022-11-15T17:30:57;7.53;99.99
70336;SHT31;57756;47.408;18.940;2022-11-15T17:33:23;7.50;99.99
70336;SHT31;57756;47.408;18.940;2022-11-15T17:35:59;7.49;99.99
70336;SHT31;57756;47.408;18.940;2022-11-15T17:38:25;7.46;99.99
70336;SHT31;57756;47.408;18.940;2022-11-15T17:43:26;7.56;99.99
70336;SHT31;57756;47.408;18.940;2022-11-15T17:45:52;7.56;99.99
70336;SHT31;57756;47.408;18.940;2022-11-15T17:48:17;7.57;99.99
70336;SHT31;57756;47.408;18.940;2022-11-15T17:50:43;7.54;99.99
70336;SHT31;57756;47.408;18.940;2022-11-15T17:53:08;7.53;99.99
70336;SHT31;57756;47.408;18.940;2022-11-15T17:55:34;7.57;99.99
70336;SHT31;57756;47.408;18.940;2022-11-15T17:57:59;7.59;99.99